Middletown, VA (22645)

4:39 AM EST on February 10, 2016 (GMT -0500)
Kendall Mills | | Change Station
CLOSE
Current Station
Personal Weather Station
Location: Middletown, VA
Elevation: 682 ft
Nearby Weather Stations

Elev 682 ft 39.03 °N, 78.25 °W | Updated 14 seconds ago

Overcast
Overcast
28.9 °F
Feels Like 25 °F
N
3.6
Wind Variable Wind from NW
Gusts 4.9 mph

Today
High -- | Low -- °F
--% Chance of Precip.
Yesterday
High -- | Low -- °F
Precip. -- in
Pressure 29.70 in
Visibility 10.0 miles
Clouds Overcast 4200 ft
Windchill 25 °F
Dew Point 9 °F
Humidity 42%
Rainfall 0.00 in
Snow Depth Not available.
7:11 AM 5:44 PM
Waxing Crescent, 4% visible
METAR KOKV 100915Z AUTO 28013G19KT 10SM OVC042 M01/M08 A2970 RMK AO2
Pressure 29.70 in
Visibility 10.0 miles
Clouds Overcast 4200 ft
Windchill 25 °F
Dew Point 9 °F
Humidity 42%
Rainfall 0.00 in
Snow Depth Not available.
7:11 AM 5:44 PM
Waxing Crescent, 4% visible
METAR KOKV 100915Z AUTO 28013G19KT 10SM OVC042 M01/M08 A2970 RMK AO2

10-Day Weather Forecast

Almanac

Astronomy

Feb. 10, 2016 Rise Set
Actual Time
Civil Twilight
Nautical Twilight
Astronomical Twilight
Moon
Length of Visible Light
Length of Day
Tomorrow will be .
, % of the Moon is Illuminated

Today's Extremes

State Highs State Lows

Community

WunderPhotos

Upload Photos

1,891,826 photos uploaded!

WunderBlog® & News

Nearby

Air Quality

  Air Quality AQ Index Pollutant
Not available.

Snow Depth

Station Depth Elevation

Earthquake Activity

City Distance Mag. Time & Date
Minimum magnitude displayed is 2.5.

Coastal Water Temperatures

Place Temperature

Stations

Nearby Weather Stations

Station Location Temp. Windchill Dew Point Humidity Wind Precip. Elev Updated Type
                   

Watches & Warnings

There are currently no watches in effect.